createdAt,value
2022-11-21T00:02:05.027Z,1.30
2022-11-21T00:04:34.225Z,1.20
2022-11-21T00:07:02.047Z,1.10
2022-11-21T00:09:29.833Z,1.00
2022-11-21T00:11:57.607Z,1.20
2022-11-21T00:14:25.994Z,0.90
2022-11-21T00:16:57.347Z,1.20
2022-11-21T00:19:25.460Z,1.30
2022-11-21T00:21:54.651Z,0.97
2022-11-21T00:24:22.431Z,1.13
2022-11-21T00:26:50.215Z,1.10
2022-11-21T00:29:18.028Z,1.47
2022-11-21T00:31:45.781Z,1.03
2022-11-21T00:34:13.571Z,1.00
2022-11-21T00:36:41.326Z,1.17
2022-11-21T00:39:10.544Z,0.97
2022-11-21T00:41:38.403Z,1.20
2022-11-21T00:44:06.341Z,1.10
2022-11-21T00:46:34.105Z,1.07
2022-11-21T00:49:02.123Z,1.13
2022-11-21T00:51:29.978Z,1.13
2022-11-21T00:53:57.810Z,1.37
2022-11-21T00:56:26.949Z,1.30
2022-11-21T00:58:54.728Z,1.00
2022-11-21T01:01:22.657Z,1.20
2022-11-21T01:03:50.536Z,1.13
2022-11-21T01:06:18.334Z,1.23
2022-11-21T01:08:46.689Z,1.40
2022-11-21T01:11:17.031Z,1.10
2022-11-21T01:13:47.599Z,1.23
2022-11-21T01:16:18.082Z,1.30
2022-11-21T01:18:46.489Z,0.90
2022-11-21T01:21:16.583Z,1.10
2022-11-21T01:23:44.962Z,1.20
2022-11-21T01:26:15.160Z,1.10
2022-11-21T01:28:42.959Z,1.00
2022-11-21T01:31:17.287Z,1.20
2022-11-21T01:33:45.562Z,1.40
2022-11-21T01:36:15.427Z,1.20
2022-11-21T01:38:44.927Z,1.10
2022-11-21T01:41:13.896Z,1.27
2022-11-21T01:43:41.938Z,1.17
2022-11-21T01:46:16.281Z,1.40
2022-11-21T01:48:50.229Z,1.20
2022-11-21T01:51:22.437Z,1.30
2022-11-21T01:53:54.853Z,1.40
2022-11-21T01:56:23.610Z,1.43
2022-11-21T01:58:54.424Z,1.30
2022-11-21T02:01:24.175Z,1.10
2022-11-21T02:03:53.909Z,1.30
2022-11-21T02:06:22.004Z,1.20
2022-11-21T02:08:50.075Z,1.50
2022-11-21T02:11:25.532Z,1.20
2022-11-21T02:13:53.935Z,1.60
2022-11-21T02:16:23.755Z,1.47
2022-11-21T02:18:51.585Z,1.67
2022-11-21T02:21:27.601Z,1.50
2022-11-21T02:24:01.774Z,1.63
2022-11-21T02:26:31.442Z,1.20
2022-11-21T02:28:59.661Z,1.43
2022-11-21T02:31:27.488Z,1.77
2022-11-21T02:33:55.215Z,1.30
2022-11-21T02:36:36.693Z,1.30
2022-11-21T02:39:06.344Z,1.20
2022-11-21T02:41:38.770Z,1.47
2022-11-21T02:44:15.134Z,1.47
2022-11-21T02:46:50.132Z,1.40
2022-11-21T02:49:25.479Z,1.80
2022-11-21T02:51:53.231Z,1.43
2022-11-21T02:54:21.330Z,1.50
2022-11-21T02:56:50.454Z,1.20
2022-11-21T02:59:18.223Z,1.30
2022-11-21T03:01:45.952Z,1.37
2022-11-21T03:04:13.787Z,1.40
2022-11-21T03:06:41.540Z,1.67
2022-11-21T03:09:09.320Z,1.40
2022-11-21T03:11:37.066Z,1.43
2022-11-21T03:14:06.183Z,1.40
2022-11-21T03:16:33.944Z,1.30
2022-11-21T03:19:01.835Z,1.40
2022-11-21T03:21:29.599Z,1.40
2022-11-21T03:23:57.408Z,1.40
2022-11-21T03:26:25.211Z,1.17
2022-11-21T03:28:52.955Z,1.63
2022-11-21T03:31:22.104Z,1.30
2022-11-21T03:33:49.960Z,1.30
2022-11-21T03:36:17.702Z,1.43
2022-11-21T03:38:45.447Z,1.33
2022-11-21T03:41:27.090Z,1.17
2022-11-21T03:43:54.830Z,1.63
2022-11-21T03:46:24.392Z,1.60
2022-11-21T03:48:52.312Z,1.30
2022-11-21T03:51:20.189Z,1.60
2022-11-21T03:53:48.152Z,1.20
2022-11-21T03:56:15.996Z,1.43
2022-11-21T03:58:43.816Z,1.60
2022-11-21T04:01:13.116Z,1.50
2022-11-21T04:03:42.888Z,1.63
2022-11-21T04:06:11.877Z,1.77
2022-11-21T04:08:39.898Z,1.30
2022-11-21T04:11:08.363Z,1.23
2022-11-21T04:13:36.336Z,1.60
2022-11-21T04:16:04.157Z,1.40
2022-11-21T04:18:31.940Z,1.30
2022-11-21T04:21:02.433Z,1.20
2022-11-21T04:23:31.483Z,2.00
2022-11-21T04:25:59.538Z,1.83
2022-11-21T04:28:27.536Z,1.73
2022-11-21T04:30:59.352Z,1.10
2022-11-21T04:33:29.510Z,1.50
2022-11-21T04:35:57.402Z,1.20
2022-11-21T04:38:26.582Z,1.70
2022-11-21T04:40:54.339Z,1.10
2022-11-21T04:43:22.127Z,1.30
2022-11-21T04:45:49.881Z,1.77
2022-11-21T04:48:17.630Z,1.60
2022-11-21T04:50:46.995Z,1.07
2022-11-21T04:53:14.928Z,1.47
2022-11-21T04:55:44.194Z,1.80
2022-11-21T04:58:13.022Z,1.43
2022-11-21T05:00:40.815Z,1.40
2022-11-21T05:03:08.848Z,1.20
2022-11-21T05:05:36.598Z,1.40
2022-11-21T05:08:04.933Z,1.40
2022-11-21T05:10:52.870Z,1.50
2022-11-21T05:13:21.325Z,1.33
2022-11-21T05:15:51.597Z,1.13
2022-11-21T05:18:20.796Z,1.93
2022-11-21T05:20:48.687Z,3.70
2022-11-21T05:23:16.776Z,1.40
2022-11-21T05:25:44.551Z,2.60
2022-11-21T05:28:12.612Z,1.63
2022-11-21T05:30:44.287Z,1.40
2022-11-21T05:33:12.062Z,1.33
2022-11-21T05:35:43.353Z,2.30
2022-11-21T05:38:11.785Z,1.60
2022-11-21T05:40:39.635Z,1.57
2022-11-21T05:43:24.777Z,1.70
2022-11-21T05:45:54.426Z,1.43
2022-11-21T05:48:22.290Z,1.50
2022-11-21T05:50:50.644Z,1.50
2022-11-21T05:53:19.094Z,1.23
2022-11-21T05:55:47.198Z,1.60
2022-11-21T05:58:15.444Z,1.50
2022-11-21T06:00:43.204Z,1.60
2022-11-21T06:03:27.250Z,1.30
2022-11-21T06:06:00.374Z,1.37
2022-11-21T06:08:28.357Z,1.37
2022-11-21T06:10:56.276Z,1.53
2022-11-21T06:13:24.121Z,1.23
2022-11-21T06:15:53.877Z,1.13
2022-11-21T06:18:23.032Z,1.77
2022-11-21T06:20:51.097Z,1.77
2022-11-21T06:23:19.335Z,1.30
2022-11-21T06:25:47.197Z,1.70
2022-11-21T06:28:15.084Z,1.30
2022-11-21T06:30:42.875Z,1.30
2022-11-21T06:33:10.658Z,1.77
2022-11-21T06:35:40.611Z,1.57
2022-11-21T06:38:08.853Z,1.50
2022-11-21T06:40:38.763Z,1.30
2022-11-21T06:43:06.579Z,1.30
2022-11-21T06:45:34.473Z,1.20
2022-11-21T06:48:02.909Z,1.50
2022-11-21T06:50:31.153Z,1.10
2022-11-21T06:53:00.486Z,1.07
2022-11-21T06:55:29.784Z,0.80
2022-11-21T06:57:59.818Z,1.03
2022-11-21T07:00:28.396Z,1.13
2022-11-21T07:03:01.604Z,1.37
2022-11-21T07:05:31.206Z,1.10
2022-11-21T07:08:01.988Z,1.03
2022-11-21T07:10:31.126Z,1.20
2022-11-21T07:13:16.468Z,1.03
2022-11-21T07:15:44.872Z,1.10
2022-11-21T07:18:13.322Z,0.90
2022-11-21T07:20:41.741Z,1.23
2022-11-21T07:23:11.391Z,1.13
2022-11-21T07:25:39.684Z,1.10
2022-11-21T07:28:09.735Z,0.97
2022-11-21T07:30:37.957Z,1.10
2022-11-21T07:33:07.272Z,1.00
2022-11-21T07:35:35.270Z,1.00
2022-11-21T07:38:03.685Z,1.00
2022-11-21T07:40:34.645Z,1.00
2022-11-21T07:43:06.683Z,1.10
2022-11-21T07:45:39.157Z,1.10
2022-11-21T07:48:08.272Z,1.37
2022-11-21T07:50:36.188Z,1.17
2022-11-21T07:53:05.938Z,1.30
2022-11-21T07:55:40.323Z,1.17
2022-11-21T07:58:10.307Z,1.00
2022-11-21T08:00:40.183Z,1.10
2022-11-21T08:03:08.393Z,1.03
2022-11-21T08:05:37.218Z,1.40
2022-11-21T08:08:05.579Z,1.20
2022-11-21T08:10:34.734Z,1.23
2022-11-21T08:13:02.495Z,1.30
2022-11-21T08:15:30.291Z,1.40
2022-11-21T08:17:58.060Z,1.17
2022-11-21T08:20:25.963Z,1.20
2022-11-21T08:22:53.819Z,0.93
2022-11-21T08:25:21.578Z,1.40
2022-11-21T08:27:50.731Z,1.20
2022-11-21T08:30:18.599Z,1.07
2022-11-21T08:32:46.363Z,1.07
2022-11-21T08:35:14.140Z,1.30
2022-11-21T08:37:41.895Z,1.30
2022-11-21T08:40:11.772Z,1.43
2022-11-21T08:42:39.549Z,1.37
2022-11-21T08:45:10.033Z,1.17
2022-11-21T08:47:37.860Z,1.17
2022-11-21T08:50:09.172Z,1.10
2022-11-21T08:52:37.199Z,1.40
2022-11-21T08:55:05.333Z,1.13
2022-11-21T08:57:33.142Z,1.80
2022-11-21T09:00:00.875Z,1.57
2022-11-21T09:02:55.212Z,1.30
2022-11-21T09:05:22.945Z,1.70
2022-11-21T09:08:01.690Z,1.40
2022-11-21T09:10:30.097Z,1.27
2022-11-21T09:12:58.934Z,1.33
2022-11-21T09:15:47.916Z,1.60
2022-11-21T09:18:17.185Z,1.20
2022-11-21T09:20:45.600Z,1.40
2022-11-21T09:23:15.667Z,1.40
2022-11-21T09:25:43.924Z,1.50
2022-11-21T09:28:13.446Z,1.33
2022-11-21T09:30:42.059Z,1.57
2022-11-21T09:33:13.207Z,1.40
2022-11-21T09:35:42.393Z,1.67
2022-11-21T09:38:10.662Z,1.70
2022-11-21T09:40:44.755Z,1.77
2022-11-21T09:43:31.203Z,1.40
2022-11-21T09:46:07.000Z,1.50
2022-11-21T09:48:39.720Z,1.53
2022-11-21T09:51:14.907Z,1.17
2022-11-21T09:53:54.046Z,1.70
2022-11-21T09:56:24.339Z,1.43
2022-11-21T09:59:07.374Z,1.33
2022-11-21T10:01:35.779Z,1.53
2022-11-21T10:04:04.653Z,1.33
2022-11-21T10:06:43.539Z,1.37
2022-11-21T10:09:21.167Z,1.47
2022-11-21T10:12:17.008Z,1.37
2022-11-21T10:14:57.082Z,1.50
2022-11-21T10:17:37.020Z,1.50
2022-11-21T10:20:22.797Z,1.73
2022-11-21T10:23:06.702Z,1.70
2022-11-21T10:25:38.355Z,1.50
2022-11-21T10:28:13.968Z,1.60
2022-11-21T10:30:44.997Z,1.50
2022-11-21T10:33:18.359Z,2.60
2022-11-21T10:35:50.125Z,1.50
2022-11-21T10:38:23.190Z,1.70
2022-11-21T10:40:55.677Z,1.80
2022-11-21T10:43:53.256Z,2.20
2022-11-21T10:46:21.402Z,1.53
2022-11-21T10:48:57.033Z,1.50
2022-11-21T10:51:38.254Z,1.80
2022-11-21T10:54:27.560Z,1.53
2022-11-21T10:56:59.910Z,1.60
2022-11-21T10:59:31.303Z,2.00
2022-11-21T11:02:01.251Z,1.90
2022-11-21T11:04:44.045Z,1.53
2022-11-21T11:07:25.352Z,1.57
2022-11-21T11:10:14.794Z,1.80
2022-11-21T11:13:04.987Z,1.50
2022-11-21T11:15:39.322Z,1.33
2022-11-21T11:18:09.671Z,1.53
2022-11-21T11:20:39.806Z,1.57
2022-11-21T11:23:18.266Z,1.90
2022-11-21T11:25:52.932Z,1.40
2022-11-21T11:28:21.362Z,1.40
2022-11-21T11:30:50.263Z,1.30
2022-11-21T11:33:36.654Z,1.30
2022-11-21T11:36:16.146Z,1.70
2022-11-21T11:38:49.790Z,1.50
2022-11-21T11:42:01.136Z,2.20
2022-11-21T11:44:55.255Z,1.77
2022-11-21T11:47:31.469Z,1.60
2022-11-21T11:50:15.593Z,1.80
2022-11-21T11:52:54.703Z,1.60
2022-11-21T11:55:27.803Z,1.50
2022-11-21T11:58:00.861Z,2.10
2022-11-21T12:00:36.282Z,1.73
2022-11-21T12:03:14.683Z,1.50
2022-11-21T12:05:56.682Z,1.60
2022-11-21T12:08:47.552Z,1.37
2022-11-21T12:11:42.208Z,1.30
2022-11-21T12:14:39.494Z,1.57
2022-11-21T12:17:09.997Z,1.73
2022-11-21T12:19:39.617Z,1.40
2022-11-21T12:22:11.536Z,1.60
2022-11-21T12:24:42.960Z,1.37
2022-11-21T12:27:23.222Z,1.30
2022-11-21T12:30:07.167Z,1.23
2022-11-21T12:32:55.567Z,1.40
2022-11-21T12:35:40.206Z,1.40
2022-11-21T12:38:22.677Z,1.67
2022-11-21T12:41:30.143Z,4.20
2022-11-21T12:44:10.771Z,1.73
2022-11-21T12:46:53.548Z,1.50
2022-11-21T12:49:54.560Z,1.50
2022-11-21T12:52:48.105Z,1.50
2022-11-21T12:55:22.182Z,1.37
2022-11-21T12:58:06.056Z,1.70
2022-11-21T13:00:43.983Z,1.20
2022-11-21T13:03:30.007Z,1.20
2022-11-21T13:05:59.657Z,1.40
2022-11-21T13:08:30.781Z,1.60
2022-11-21T13:11:21.370Z,1.27
2022-11-21T13:13:57.178Z,1.30
2022-11-21T13:16:37.660Z,1.53
2022-11-21T13:19:23.422Z,1.50
2022-11-21T13:21:55.652Z,1.53
2022-11-21T13:24:59.244Z,1.20
2022-11-21T13:27:38.096Z,1.23
2022-11-21T13:30:33.825Z,1.20
2022-11-21T13:33:01.698Z,1.17
2022-11-21T13:36:05.976Z,1.80
2022-11-21T13:39:13.771Z,1.30
2022-11-21T13:42:30.804Z,1.30
2022-11-21T13:44:59.491Z,1.47
2022-11-21T13:48:11.836Z,1.30
2022-11-21T13:51:12.729Z,1.57
2022-11-21T13:54:02.471Z,1.40
2022-11-21T13:56:38.172Z,1.57
2022-11-21T13:59:22.288Z,1.50
2022-11-21T14:02:08.646Z,1.50
2022-11-21T14:04:55.693Z,1.30
2022-11-21T14:07:30.940Z,1.60
2022-11-21T14:10:02.162Z,1.90
2022-11-21T14:12:35.248Z,2.30
2022-11-21T14:15:21.460Z,1.90
2022-11-21T14:17:50.930Z,1.50
2022-11-21T14:20:24.818Z,1.57
2022-11-21T14:22:59.534Z,1.60
2022-11-21T14:25:36.500Z,1.67
2022-11-21T14:28:07.656Z,1.50
2022-11-21T14:30:38.588Z,1.40
2022-11-21T14:33:23.176Z,1.30
2022-11-21T14:35:54.460Z,1.93
2022-11-21T14:38:23.512Z,1.30
2022-11-21T14:41:12.379Z,2.20
2022-11-21T14:43:40.162Z,1.70
2022-11-21T14:46:16.300Z,1.70
2022-11-21T14:48:44.282Z,1.60
2022-11-21T14:51:17.381Z,1.67
2022-11-21T14:53:47.140Z,1.83
2022-11-21T14:56:23.697Z,1.57
2022-11-21T14:58:53.020Z,1.80
2022-11-21T15:01:22.432Z,1.70
2022-11-21T15:04:01.197Z,2.00
2022-11-21T15:06:30.044Z,2.57
2022-11-21T15:11:52.521Z,2.20
2022-11-21T15:14:25.633Z,2.30
2022-11-21T15:16:55.423Z,2.00
2022-11-21T15:19:25.169Z,1.93
2022-11-21T15:21:55.414Z,2.27
2022-11-21T15:24:40.395Z,2.30
2022-11-21T15:27:34.879Z,1.80
2022-11-21T15:30:22.158Z,2.00
2022-11-21T15:33:07.568Z,2.63
2022-11-21T15:36:12.108Z,2.43
2022-11-21T15:38:45.293Z,2.20
2022-11-21T15:41:28.237Z,5.20
2022-11-21T15:44:12.951Z,3.23
2022-11-21T15:46:42.926Z,2.97
2022-11-21T15:49:32.532Z,2.87
2022-11-21T15:52:06.983Z,3.90
2022-11-21T15:54:35.474Z,3.60
2022-11-21T15:57:03.295Z,3.83
2022-11-21T15:59:32.764Z,3.20
2022-11-21T16:02:00.663Z,2.70
2022-11-21T16:04:28.694Z,3.13
2022-11-21T16:06:56.503Z,3.10
2022-11-21T16:09:25.163Z,3.00
2022-11-21T16:11:52.948Z,2.97
2022-11-21T16:14:20.756Z,3.20
2022-11-21T16:16:49.900Z,3.20
2022-11-21T16:19:17.706Z,3.60
2022-11-21T16:21:45.482Z,3.10
2022-11-21T16:24:13.500Z,2.93
2022-11-21T16:26:41.288Z,3.13
2022-11-21T16:29:12.152Z,3.20
2022-11-21T16:31:39.925Z,2.70
2022-11-21T16:34:09.168Z,2.60
2022-11-21T16:36:38.059Z,2.63
2022-11-21T16:39:11.115Z,2.90
2022-11-21T16:41:41.114Z,2.93
2022-11-21T16:44:13.871Z,3.23
2022-11-21T16:46:43.603Z,2.80
2022-11-21T16:49:13.033Z,2.50
2022-11-21T16:51:40.934Z,2.87
2022-11-21T16:54:09.680Z,2.73
2022-11-21T16:56:38.177Z,2.57
2022-11-21T16:59:06.018Z,2.90
2022-11-21T17:01:33.918Z,2.90
2022-11-21T17:04:01.735Z,2.67
2022-11-21T17:06:32.209Z,2.80
2022-11-21T17:09:01.688Z,2.57
2022-11-21T17:11:32.273Z,2.77
2022-11-21T17:14:02.148Z,3.33
2022-11-21T17:16:30.471Z,3.20
2022-11-21T17:19:00.888Z,2.73
2022-11-21T17:21:31.236Z,2.80
2022-11-21T17:23:59.181Z,3.00
2022-11-21T17:26:28.444Z,3.00
2022-11-21T17:28:57.701Z,2.97
2022-11-21T17:31:26.265Z,3.10
2022-11-21T17:33:54.795Z,3.20
2022-11-21T17:36:24.440Z,3.70
2022-11-21T17:38:54.671Z,3.30
2022-11-21T17:41:24.047Z,3.60
2022-11-21T17:43:56.058Z,3.47
2022-11-21T17:46:25.363Z,3.80
2022-11-21T17:48:58.474Z,3.33
2022-11-21T17:51:28.998Z,3.93
2022-11-21T17:53:59.397Z,3.40
2022-11-21T17:56:29.631Z,3.30
2022-11-21T17:58:57.796Z,3.37
2022-11-21T18:01:26.414Z,3.57
2022-11-21T18:03:56.639Z,3.37
2022-11-21T18:06:25.651Z,3.40
2022-11-21T18:08:53.513Z,3.80
2022-11-21T18:11:23.133Z,3.20
2022-11-21T18:13:51.640Z,2.70
2022-11-21T18:16:22.033Z,3.00
2022-11-21T18:18:50.588Z,2.90
2022-11-21T18:21:20.874Z,2.80
2022-11-21T18:23:48.929Z,2.80
2022-11-21T18:26:20.490Z,2.70
2022-11-21T18:29:01.779Z,2.50
2022-11-21T18:31:38.346Z,2.70
2022-11-21T18:34:07.565Z,2.20
2022-11-21T18:36:36.043Z,2.50
2022-11-21T18:39:10.498Z,2.60
2022-11-21T18:41:41.780Z,3.00
2022-11-21T18:44:19.980Z,2.87
2022-11-21T18:46:49.379Z,3.10
2022-11-21T18:49:18.477Z,2.70
2022-11-21T18:51:46.343Z,2.90
2022-11-21T18:54:14.164Z,2.53
2022-11-21T18:56:41.920Z,3.00
2022-11-21T18:59:11.334Z,3.00
2022-11-21T19:01:40.219Z,2.90
2022-11-21T19:04:08.692Z,2.73
2022-11-21T19:06:36.988Z,2.77
2022-11-21T19:09:06.491Z,3.27
2022-11-21T19:11:35.846Z,2.97
2022-11-21T19:14:03.736Z,3.00
2022-11-21T19:16:34.263Z,3.30
2022-11-21T19:19:33.052Z,3.40
2022-11-21T19:21:52.605Z,3.33
2022-11-21T19:24:20.386Z,3.27
2022-11-21T19:26:50.341Z,3.00
2022-11-21T19:29:18.797Z,3.53
2022-11-21T19:31:48.021Z,3.37
2022-11-21T19:34:16.476Z,3.60
2022-11-21T19:36:44.997Z,3.10
2022-11-21T19:39:13.810Z,3.20
2022-11-21T19:41:41.631Z,3.83
2022-11-21T19:44:09.734Z,3.80
2022-11-21T19:46:39.740Z,3.50
2022-11-21T19:49:11.203Z,3.23
2022-11-21T19:51:41.897Z,3.70
2022-11-21T19:54:13.154Z,3.87
2022-11-21T19:56:41.235Z,3.73
2022-11-21T19:59:12.001Z,3.60
2022-11-21T20:01:40.917Z,3.97
2022-11-21T20:04:12.331Z,3.60
2022-11-21T20:06:42.466Z,3.50
2022-11-21T20:09:12.778Z,3.67
2022-11-21T20:11:42.448Z,3.60
2022-11-21T20:14:11.631Z,3.80
2022-11-21T20:16:43.993Z,4.00
2022-11-21T20:19:15.608Z,4.20
2022-11-21T20:21:44.392Z,3.53
2022-11-21T20:24:13.289Z,4.00
2022-11-21T20:26:41.559Z,3.60
2022-11-21T20:29:10.984Z,3.57
2022-11-21T20:31:39.115Z,3.80
2022-11-21T20:34:09.853Z,3.37
2022-11-21T20:36:39.539Z,3.30
2022-11-21T20:39:09.607Z,3.57
2022-11-21T20:41:37.990Z,3.50
2022-11-21T20:46:55.454Z,3.20
2022-11-21T20:49:23.507Z,3.67
2022-11-21T20:54:40.425Z,3.43
2022-11-21T20:57:14.313Z,3.07
2022-11-21T20:59:42.945Z,3.20
2022-11-21T21:02:13.795Z,3.67
2022-11-21T21:04:41.876Z,3.70
2022-11-21T21:07:11.239Z,5.17
2022-11-21T21:09:39.117Z,9.93
2022-11-21T21:12:07.258Z,3.60
2022-11-21T21:14:35.107Z,6.37
2022-11-21T21:17:07.453Z,3.30
2022-11-21T21:19:36.494Z,4.13
2022-11-21T21:22:04.918Z,3.37
2022-11-21T21:24:34.112Z,4.00
2022-11-21T21:27:01.880Z,3.73
2022-11-21T21:29:30.016Z,3.40
2022-11-21T21:31:58.063Z,4.43
2022-11-21T21:34:25.796Z,3.70
2022-11-21T21:36:53.549Z,7.40
2022-11-21T21:39:21.372Z,4.17
2022-11-21T21:41:50.497Z,3.40
2022-11-21T21:44:18.874Z,2.87
2022-11-21T21:46:46.721Z,3.33
2022-11-21T21:49:14.659Z,3.87
2022-11-21T21:51:42.810Z,3.40
2022-11-21T21:54:18.553Z,4.00
2022-11-21T21:56:47.009Z,3.77
2022-11-21T21:59:17.941Z,3.93
2022-11-21T22:01:46.027Z,3.13
2022-11-21T22:04:14.077Z,5.20
2022-11-21T22:06:41.891Z,3.57
2022-11-21T22:09:09.806Z,4.00
2022-11-21T22:11:39.516Z,3.40
2022-11-21T22:14:11.242Z,3.60
2022-11-21T22:16:41.085Z,4.17
2022-11-21T22:19:09.716Z,3.60
2022-11-21T22:21:39.279Z,3.40
2022-11-21T22:24:28.472Z,3.30
2022-11-21T22:26:56.423Z,3.50
2022-11-21T22:29:24.396Z,3.40
2022-11-21T22:31:53.670Z,3.33
2022-11-21T22:34:22.100Z,3.70
2022-11-21T22:36:49.958Z,3.70
2022-11-21T22:39:17.993Z,3.80
2022-11-21T22:41:45.916Z,3.20
2022-11-21T22:44:13.719Z,3.67
2022-11-21T22:46:41.601Z,3.70
2022-11-21T22:49:10.784Z,3.10
2022-11-21T22:51:38.645Z,3.73
2022-11-21T22:54:06.496Z,3.43
2022-11-21T22:56:34.334Z,3.60
2022-11-21T22:59:02.241Z,3.40
2022-11-21T23:01:30.043Z,3.80
2022-11-21T23:03:57.858Z,3.50
2022-11-21T23:06:28.359Z,3.20
2022-11-21T23:08:57.649Z,3.50
2022-11-21T23:11:27.712Z,3.47
2022-11-21T23:13:56.498Z,3.23
2022-11-21T23:16:24.794Z,3.03
2022-11-21T23:18:53.940Z,3.20
2022-11-21T23:21:22.109Z,3.10
2022-11-21T23:23:51.248Z,3.07
2022-11-21T23:26:19.124Z,2.70
2022-11-21T23:28:47.063Z,2.60
2022-11-21T23:31:14.897Z,2.67
2022-11-21T23:33:42.793Z,3.10
2022-11-21T23:36:10.528Z,2.90
2022-11-21T23:38:39.398Z,2.93
2022-11-21T23:41:08.524Z,2.93
2022-11-21T23:43:36.303Z,2.73
2022-11-21T23:46:04.130Z,2.80
2022-11-21T23:48:31.904Z,2.37
2022-11-21T23:50:59.737Z,2.97
2022-11-21T23:53:27.743Z,3.30
2022-11-21T23:55:55.491Z,2.77
2022-11-21T23:58:24.614Z,2.90
